sensor_id;sensor_type;location;lat;lon;timestamp;P1;P2;P0
77413;PMS7003;66486;49.992;19.164;2023-05-07T00:00:03;24.50;24.50;15.75
77413;PMS7003;66486;49.992;19.164;2023-05-07T00:02:54;32.60;31.00;17.20
77413;PMS7003;66486;49.992;19.164;2023-05-07T00:05:19;26.75;25.25;16.00
77413;PMS7003;66486;49.992;19.164;2023-05-07T00:07:46;28.20;28.20;19.00
77413;PMS7003;66486;49.992;19.164;2023-05-07T00:10:12;25.80;25.80;19.00
77413;PMS7003;66486;49.992;19.164;2023-05-07T00:12:38;26.80;26.60;16.80
77413;PMS7003;66486;49.992;19.164;2023-05-07T00:15:06;27.80;27.80;19.40
77413;PMS7003;66486;49.992;19.164;2023-05-07T00:17:32;33.80;33.00;19.00
77413;PMS7003;66486;49.992;19.164;2023-05-07T00:19:58;35.80;28.80;16.20
77413;PMS7003;66486;49.992;19.164;2023-05-07T00:22:24;25.00;24.20;17.20
77413;PMS7003;66486;49.992;19.164;2023-05-07T00:24:50;34.25;33.00;19.50
77413;PMS7003;66486;49.992;19.164;2023-05-07T00:27:16;27.40;26.80;18.40
77413;PMS7003;66486;49.992;19.164;2023-05-07T00:29:42;35.00;29.75;20.25
77413;PMS7003;66486;49.992;19.164;2023-05-07T00:32:08;26.60;26.00;18.40
77413;PMS7003;66486;49.992;19.164;2023-05-07T00:34:34;28.00;28.00;17.75
77413;PMS7003;66486;49.992;19.164;2023-05-07T00:37:01;34.00;32.60;19.40
77413;PMS7003;66486;49.992;19.164;2023-05-07T00:39:26;32.00;31.20;20.20
77413;PMS7003;66486;49.992;19.164;2023-05-07T00:41:52;25.00;24.00;17.00
77413;PMS7003;66486;49.992;19.164;2023-05-07T00:44:18;38.75;37.25;20.00
77413;PMS7003;66486;49.992;19.164;2023-05-07T00:46:44;30.00;28.00;18.40
77413;PMS7003;66486;49.992;19.164;2023-05-07T00:49:14;31.60;30.00;18.40
77413;PMS7003;66486;49.992;19.164;2023-05-07T00:51:40;33.40;31.80;19.40
77413;PMS7003;66486;49.992;19.164;2023-05-07T00:54:06;37.75;37.25;20.25
77413;PMS7003;66486;49.992;19.164;2023-05-07T00:56:33;32.20;27.60;16.00
77413;PMS7003;66486;49.992;19.164;2023-05-07T00:59:01;28.00;23.60;16.20
77413;PMS7003;66486;49.992;19.164;2023-05-07T01:01:28;31.80;30.60;19.40
77413;PMS7003;66486;49.992;19.164;2023-05-07T01:03:54;30.75;28.00;16.25
77413;PMS7003;66486;49.992;19.164;2023-05-07T01:06:20;39.40;38.00;21.40
77413;PMS7003;66486;49.992;19.164;2023-05-07T01:08:47;39.00;36.20;21.20
77413;PMS7003;66486;49.992;19.164;2023-05-07T01:11:14;36.60;33.80;19.80
77413;PMS7003;66486;49.992;19.164;2023-05-07T01:13:40;33.00;32.20;20.20
77413;PMS7003;66486;49.992;19.164;2023-05-07T01:16:08;36.60;36.20;19.80
77413;PMS7003;66486;49.992;19.164;2023-05-07T01:18:35;29.80;28.80;17.80
77413;PMS7003;66486;49.992;19.164;2023-05-07T01:21:01;27.40;27.40;20.20
77413;PMS7003;66486;49.992;19.164;2023-05-07T01:23:29;29.60;28.20;19.00
77413;PMS7003;66486;49.992;19.164;2023-05-07T01:25:56;34.60;33.00;18.60
77413;PMS7003;66486;49.992;19.164;2023-05-07T01:28:22;29.75;28.75;16.50
77413;PMS7003;66486;49.992;19.164;2023-05-07T01:30:55;29.60;27.20;20.20
77413;PMS7003;66486;49.992;19.164;2023-05-07T01:33:29;31.40;31.40;19.60
77413;PMS7003;66486;49.992;19.164;2023-05-07T01:35:57;30.00;29.20;13.00
77413;PMS7003;66486;49.992;19.164;2023-05-07T01:38:27;22.00;22.00;15.60
77413;PMS7003;66486;49.992;19.164;2023-05-07T01:40:54;29.40;28.80;15.80
77413;PMS7003;66486;49.992;19.164;2023-05-07T01:43:21;33.00;30.60;15.60
77413;PMS7003;66486;49.992;19.164;2023-05-07T01:45:47;37.20;37.20;18.40
77413;PMS7003;66486;49.992;19.164;2023-05-07T01:48:14;29.20;28.60;19.40
77413;PMS7003;66486;49.992;19.164;2023-05-07T01:50:41;36.40;33.60;20.40
77413;PMS7003;66486;49.992;19.164;2023-05-07T01:53:08;36.80;35.00;19.60
77413;PMS7003;66486;49.992;19.164;2023-05-07T01:55:34;29.40;29.20;15.20
77413;PMS7003;66486;49.992;19.164;2023-05-07T01:58:02;29.20;27.40;16.00
77413;PMS7003;66486;49.992;19.164;2023-05-07T02:00:28;16.80;15.00;5.40
77413;PMS7003;66486;49.992;19.164;2023-05-07T02:02:54;33.00;33.00;18.75
77413;PMS7003;66486;49.992;19.164;2023-05-07T02:05:20;29.80;27.60;14.80
77413;PMS7003;66486;49.992;19.164;2023-05-07T02:07:46;26.00;26.00;18.25
77413;PMS7003;66486;49.992;19.164;2023-05-07T02:10:12;26.20;24.80;15.60
77413;PMS7003;66486;49.992;19.164;2023-05-07T02:12:38;25.00;25.00;15.50
77413;PMS7003;66486;49.992;19.164;2023-05-07T02:15:04;24.60;24.60;15.80
77413;PMS7003;66486;49.992;19.164;2023-05-07T02:17:31;29.40;29.40;19.20
77413;PMS7003;66486;49.992;19.164;2023-05-07T02:20:01;24.00;21.80;15.80
77413;PMS7003;66486;49.992;19.164;2023-05-07T02:22:26;29.00;29.00;18.25
77413;PMS7003;66486;49.992;19.164;2023-05-07T02:24:52;25.00;24.20;16.40
77413;PMS7003;66486;49.992;19.164;2023-05-07T02:27:18;27.50;27.00;16.50
77413;PMS7003;66486;49.992;19.164;2023-05-07T02:29:44;24.00;22.40;13.40
77413;PMS7003;66486;49.992;19.164;2023-05-07T02:32:10;21.25;20.75;13.00
77413;PMS7003;66486;49.992;19.164;2023-05-07T02:34:36;24.00;22.80;15.80
77413;PMS7003;66486;49.992;19.164;2023-05-07T02:37:02;21.50;21.50;13.25
77413;PMS7003;66486;49.992;19.164;2023-05-07T02:39:28;30.00;25.40;15.80
77413;PMS7003;66486;49.992;19.164;2023-05-07T02:41:53;22.50;20.25;12.00
77413;PMS7003;66486;49.992;19.164;2023-05-07T02:44:20;23.20;20.60;12.40
77413;PMS7003;66486;49.992;19.164;2023-05-07T02:46:45;18.00;18.00;13.00
77413;PMS7003;66486;49.992;19.164;2023-05-07T02:49:11;15.60;15.60;9.80
77413;PMS7003;66486;49.992;19.164;2023-05-07T02:51:37;28.75;26.25;16.75
77413;PMS7003;66486;49.992;19.164;2023-05-07T02:54:03;27.80;27.20;16.00
77413;PMS7003;66486;49.992;19.164;2023-05-07T02:56:31;21.80;21.80;13.00
77413;PMS7003;66486;49.992;19.164;2023-05-07T02:58:57;24.00;22.40;12.80
77413;PMS7003;66486;49.992;19.164;2023-05-07T03:01:23;25.00;24.20;14.40
77413;PMS7003;66486;49.992;19.164;2023-05-07T03:03:50;23.60;22.80;14.20
77413;PMS7003;66486;49.992;19.164;2023-05-07T03:06:16;26.20;24.40;12.80
77413;PMS7003;66486;49.992;19.164;2023-05-07T03:08:42;25.80;24.60;16.00
77413;PMS7003;66486;49.992;19.164;2023-05-07T03:11:08;25.60;22.00;14.40
77413;PMS7003;66486;49.992;19.164;2023-05-07T03:13:34;36.20;36.00;21.00
77413;PMS7003;66486;49.992;19.164;2023-05-07T03:16:00;36.25;35.00;19.00
77413;PMS7003;66486;49.992;19.164;2023-05-07T03:18:26;38.40;36.40;21.40
77413;PMS7003;66486;49.992;19.164;2023-05-07T03:20:52;45.00;42.50;23.75
77413;PMS7003;66486;49.992;19.164;2023-05-07T03:23:18;36.60;32.60;22.80
77413;PMS7003;66486;49.992;19.164;2023-05-07T03:25:44;32.50;31.00;21.25
77413;PMS7003;66486;49.992;19.164;2023-05-07T03:28:10;27.00;27.00;17.20
77413;PMS7003;66486;49.992;19.164;2023-05-07T03:30:35;32.00;30.75;20.00
77413;PMS7003;66486;49.992;19.164;2023-05-07T03:33:01;30.40;27.80;17.20
77413;PMS7003;66486;49.992;19.164;2023-05-07T03:35:27;35.75;30.50;16.00
77413;PMS7003;66486;49.992;19.164;2023-05-07T03:37:53;33.00;31.00;18.40
77413;PMS7003;66486;49.992;19.164;2023-05-07T03:40:19;31.25;30.00;17.75
77413;PMS7003;66486;49.992;19.164;2023-05-07T03:42:46;25.20;25.20;16.80
77413;PMS7003;66486;49.992;19.164;2023-05-07T03:45:11;38.75;33.75;21.00
77413;PMS7003;66486;49.992;19.164;2023-05-07T03:47:38;25.80;25.00;15.00
77413;PMS7003;66486;49.992;19.164;2023-05-07T03:50:03;27.50;24.75;17.50
77413;PMS7003;66486;49.992;19.164;2023-05-07T03:52:30;27.00;25.40;13.00
77413;PMS7003;66486;49.992;19.164;2023-05-07T03:54:56;28.25;27.00;16.00
77413;PMS7003;66486;49.992;19.164;2023-05-07T03:57:22;33.40;31.00;18.80
77413;PMS7003;66486;49.992;19.164;2023-05-07T03:59:48;27.25;25.50;15.00
77413;PMS7003;66486;49.992;19.164;2023-05-07T04:02:14;28.80;27.40;18.00
77413;PMS7003;66486;49.992;19.164;2023-05-07T04:04:40;28.25;26.75;17.75
77413;PMS7003;66486;49.992;19.164;2023-05-07T04:07:06;29.80;25.40;15.20
77413;PMS7003;66486;49.992;19.164;2023-05-07T04:09:32;32.00;30.00;19.80
77413;PMS7003;66486;49.992;19.164;2023-05-07T04:11:58;28.20;27.20;18.20
77413;PMS7003;66486;49.992;19.164;2023-05-07T04:14:24;30.75;29.75;18.00
77413;PMS7003;66486;49.992;19.164;2023-05-07T04:16:50;39.80;39.80;24.20
77413;PMS7003;66486;49.992;19.164;2023-05-07T04:19:16;30.25;29.75;15.75
77413;PMS7003;66486;49.992;19.164;2023-05-07T04:21:42;37.80;34.20;19.00
77413;PMS7003;66486;49.992;19.164;2023-05-07T04:24:08;27.80;26.00;14.20
77413;PMS7003;66486;49.992;19.164;2023-05-07T04:26:35;24.60;24.00;17.60
77413;PMS7003;66486;49.992;19.164;2023-05-07T04:29:00;21.50;21.25;13.00
77413;PMS7003;66486;49.992;19.164;2023-05-07T04:31:27;25.20;23.00;15.20
77413;PMS7003;66486;49.992;19.164;2023-05-07T04:33:52;26.25;23.25;15.75
77413;PMS7003;66486;49.992;19.164;2023-05-07T04:36:18;24.80;22.80;16.00
77413;PMS7003;66486;49.992;19.164;2023-05-07T04:38:44;24.25;23.00;14.75
77413;PMS7003;66486;49.992;19.164;2023-05-07T04:41:12;31.20;27.60;18.20
77413;PMS7003;66486;49.992;19.164;2023-05-07T04:43:38;32.00;30.80;21.40
77413;PMS7003;66486;49.992;19.164;2023-05-07T04:46:04;29.00;27.20;16.60
77413;PMS7003;66486;49.992;19.164;2023-05-07T04:48:30;29.25;29.25;18.00
77413;PMS7003;66486;49.992;19.164;2023-05-07T04:50:56;25.40;24.80;14.20
77413;PMS7003;66486;49.992;19.164;2023-05-07T04:53:22;24.75;24.75;15.00
77413;PMS7003;66486;49.992;19.164;2023-05-07T04:55:49;22.20;21.20;15.20
77413;PMS7003;66486;49.992;19.164;2023-05-07T04:58:21;21.00;19.00;12.60
77413;PMS7003;66486;49.992;19.164;2023-05-07T05:00:47;9.00;9.00;8.60
77413;PMS7003;66486;49.992;19.164;2023-05-07T05:03:13;16.50;16.50;10.00
77413;PMS7003;66486;49.992;19.164;2023-05-07T05:05:39;23.40;17.20;6.80
77413;PMS7003;66486;49.992;19.164;2023-05-07T05:08:04;28.00;25.50;17.50
77413;PMS7003;66486;49.992;19.164;2023-05-07T05:10:31;25.40;23.60;15.60
77413;PMS7003;66486;49.992;19.164;2023-05-07T05:12:56;21.00;20.25;11.50
77413;PMS7003;66486;49.992;19.164;2023-05-07T05:15:23;22.60;21.60;13.00
77413;PMS7003;66486;49.992;19.164;2023-05-07T05:17:48;20.00;18.25;11.00
77413;PMS7003;66486;49.992;19.164;2023-05-07T05:20:15;16.20;15.60;11.60
77413;PMS7003;66486;49.992;19.164;2023-05-07T05:22:41;16.00;16.00;12.00
77413;PMS7003;66486;49.992;19.164;2023-05-07T05:25:08;17.20;15.60;10.00
77413;PMS7003;66486;49.992;19.164;2023-05-07T05:27:34;27.00;26.20;14.60
77413;PMS7003;66486;49.992;19.164;2023-05-07T05:30:01;24.40;23.60;15.00
77413;PMS7003;66486;49.992;19.164;2023-05-07T05:32:27;22.20;21.20;16.20
77413;PMS7003;66486;49.992;19.164;2023-05-07T05:34:53;24.00;22.80;15.20
77413;PMS7003;66486;49.992;19.164;2023-05-07T05:37:18;25.25;23.75;15.00
77413;PMS7003;66486;49.992;19.164;2023-05-07T05:39:45;20.80;19.80;13.20
77413;PMS7003;66486;49.992;19.164;2023-05-07T05:42:10;25.50;22.50;16.00
77413;PMS7003;66486;49.992;19.164;2023-05-07T05:44:36;21.00;19.60;12.40
77413;PMS7003;66486;49.992;19.164;2023-05-07T05:47:02;20.50;19.50;12.75
77413;PMS7003;66486;49.992;19.164;2023-05-07T05:49:28;21.20;20.20;11.60
77413;PMS7003;66486;49.992;19.164;2023-05-07T05:51:54;24.00;23.00;14.50
77413;PMS7003;66486;49.992;19.164;2023-05-07T05:54:21;27.20;26.00;15.00
77413;PMS7003;66486;49.992;19.164;2023-05-07T05:56:47;29.50;29.50;18.25
77413;PMS7003;66486;49.992;19.164;2023-05-07T05:59:13;27.40;27.40;15.80
77413;PMS7003;66486;49.992;19.164;2023-05-07T06:01:39;26.50;26.00;15.75
77413;PMS7003;66486;49.992;19.164;2023-05-07T06:04:05;24.20;23.20;15.00
77413;PMS7003;66486;49.992;19.164;2023-05-07T06:06:31;25.50;24.75;15.75
77413;PMS7003;66486;49.992;19.164;2023-05-07T06:08:57;27.00;25.00;16.00
77413;PMS7003;66486;49.992;19.164;2023-05-07T06:11:23;22.00;21.00;15.00
77413;PMS7003;66486;49.992;19.164;2023-05-07T06:13:49;19.00;18.20;13.00
77413;PMS7003;66486;49.992;19.164;2023-05-07T06:16:15;24.00;22.00;12.50
77413;PMS7003;66486;49.992;19.164;2023-05-07T06:18:41;39.20;37.40;21.20
77413;PMS7003;66486;49.992;19.164;2023-05-07T06:21:07;27.25;26.50;14.75
77413;PMS7003;66486;49.992;19.164;2023-05-07T06:23:33;35.60;32.20;17.00
77413;PMS7003;66486;49.992;19.164;2023-05-07T06:25:59;23.75;23.50;15.00
77413;PMS7003;66486;49.992;19.164;2023-05-07T06:28:25;16.80;16.00;12.00
77413;PMS7003;66486;49.992;19.164;2023-05-07T06:30:51;18.25;16.00;9.00
77413;PMS7003;66486;49.992;19.164;2023-05-07T06:33:17;16.60;16.60;10.00
77413;PMS7003;66486;49.992;19.164;2023-05-07T06:35:42;24.75;23.50;14.50
77413;PMS7003;66486;49.992;19.164;2023-05-07T06:38:09;21.80;21.80;13.40
77413;PMS7003;66486;49.992;19.164;2023-05-07T06:40:34;24.25;22.50;13.50
77413;PMS7003;66486;49.992;19.164;2023-05-07T06:43:00;28.20;26.20;13.60
77413;PMS7003;66486;49.992;19.164;2023-05-07T06:45:26;20.75;20.50;15.75
77413;PMS7003;66486;49.992;19.164;2023-05-07T06:47:52;14.60;13.60;8.20
77413;PMS7003;66486;49.992;19.164;2023-05-07T06:50:18;18.00;16.50;9.00
77413;PMS7003;66486;49.992;19.164;2023-05-07T06:52:45;19.80;19.00;12.00
77413;PMS7003;66486;49.992;19.164;2023-05-07T06:55:10;14.50;14.50;9.25
77413;PMS7003;66486;49.992;19.164;2023-05-07T06:57:37;21.20;20.80;12.80
77413;PMS7003;66486;49.992;19.164;2023-05-07T07:00:04;18.60;18.60;11.20
77413;PMS7003;66486;49.992;19.164;2023-05-07T07:02:32;19.40;17.60;12.00
77413;PMS7003;66486;49.992;19.164;2023-05-07T07:04:58;14.75;13.50;9.00
77413;PMS7003;66486;49.992;19.164;2023-05-07T07:07:24;15.80;15.20;9.80
77413;PMS7003;66486;49.992;19.164;2023-05-07T07:09:50;14.50;14.00;12.00
77413;PMS7003;66486;49.992;19.164;2023-05-07T07:12:17;12.00;12.00;9.00
77413;PMS7003;66486;49.992;19.164;2023-05-07T07:14:42;15.50;15.00;11.00
77413;PMS7003;66486;49.992;19.164;2023-05-07T07:17:09;7.40;5.20;2.60
77413;PMS7003;66486;49.992;19.164;2023-05-07T07:19:35;10.50;10.25;9.25
77413;PMS7003;66486;49.992;19.164;2023-05-07T07:22:01;14.20;12.80;9.00
77413;PMS7003;66486;49.992;19.164;2023-05-07T07:24:27;7.00;6.50;4.00
77413;PMS7003;66486;49.992;19.164;2023-05-07T07:26:53;12.00;12.00;7.40
77413;PMS7003;66486;49.992;19.164;2023-05-07T07:29:20;10.00;10.00;7.40
77413;PMS7003;66486;49.992;19.164;2023-05-07T07:31:47;7.80;7.80;4.00
77413;PMS7003;66486;49.992;19.164;2023-05-07T07:34:14;11.60;11.60;9.00
77413;PMS7003;66486;49.992;19.164;2023-05-07T07:36:40;6.40;6.40;3.00
77413;PMS7003;66486;49.992;19.164;2023-05-07T07:39:06;12.25;12.25;7.50
77413;PMS7003;66486;49.992;19.164;2023-05-07T07:41:32;10.40;9.20;6.40
77413;PMS7003;66486;49.992;19.164;2023-05-07T07:43:58;10.75;10.75;6.00
77413;PMS7003;66486;49.992;19.164;2023-05-07T07:46:24;6.00;6.00;0.00
77413;PMS7003;66486;49.992;19.164;2023-05-07T07:48:51;8.20;7.00;4.00
77413;PMS7003;66486;49.992;19.164;2023-05-07T07:51:18;12.80;12.80;9.60
77413;PMS7003;66486;49.992;19.164;2023-05-07T07:53:43;9.25;9.25;7.00
77413;PMS7003;66486;49.992;19.164;2023-05-07T07:56:09;11.20;9.80;6.60
77413;PMS7003;66486;49.992;19.164;2023-05-07T07:58:35;17.00;15.75;8.50
77413;PMS7003;66486;49.992;19.164;2023-05-07T08:01:03;11.40;10.60;6.40
77413;PMS7003;66486;49.992;19.164;2023-05-07T08:03:29;11.50;11.50;8.50
77413;PMS7003;66486;49.992;19.164;2023-05-07T08:05:58;9.60;9.00;7.40
77413;PMS7003;66486;49.992;19.164;2023-05-07T08:08:23;9.00;9.00;6.60
77413;PMS7003;66486;49.992;19.164;2023-05-07T08:10:50;7.00;7.00;5.20
77413;PMS7003;66486;49.992;19.164;2023-05-07T08:13:17;7.00;7.00;6.00
77413;PMS7003;66486;49.992;19.164;2023-05-07T08:15:44;12.80;10.80;9.60
77413;PMS7003;66486;49.992;19.164;2023-05-07T08:18:09;9.75;9.75;6.25
77413;PMS7003;66486;49.992;19.164;2023-05-07T08:20:36;12.40;12.00;8.20
77413;PMS7003;66486;49.992;19.164;2023-05-07T08:23:04;9.20;9.20;7.00
77413;PMS7003;66486;49.992;19.164;2023-05-07T08:25:35;10.20;9.80;8.40
77413;PMS7003;66486;49.992;19.164;2023-05-07T08:28:01;14.20;14.20;12.60
77413;PMS7003;66486;49.992;19.164;2023-05-07T08:30:28;10.00;10.00;9.00
77413;PMS7003;66486;49.992;19.164;2023-05-07T08:32:54;11.00;9.75;6.75
77413;PMS7003;66486;49.992;19.164;2023-05-07T08:35:20;10.80;10.40;8.80
77413;PMS7003;66486;49.992;19.164;2023-05-07T08:37:46;9.50;8.00;5.50
77413;PMS7003;66486;49.992;19.164;2023-05-07T08:40:12;8.20;6.00;4.00
77413;PMS7003;66486;49.992;19.164;2023-05-07T08:42:38;12.75;12.50;9.75
77413;PMS7003;66486;49.992;19.164;2023-05-07T08:45:10;10.00;9.00;6.00
77413;PMS7003;66486;49.992;19.164;2023-05-07T08:47:43;6.00;6.00;5.60
77413;PMS7003;66486;49.992;19.164;2023-05-07T08:50:11;10.00;10.00;6.00
77413;PMS7003;66486;49.992;19.164;2023-05-07T08:52:37;9.60;9.60;7.00
77413;PMS7003;66486;49.992;19.164;2023-05-07T08:55:04;9.80;9.40;7.00
77413;PMS7003;66486;49.992;19.164;2023-05-07T08:57:31;8.20;7.20;6.00
77413;PMS7003;66486;49.992;19.164;2023-05-07T08:59:57;4.80;3.80;3.00
77413;PMS7003;66486;49.992;19.164;2023-05-07T09:02:23;8.00;8.00;5.50
77413;PMS7003;66486;49.992;19.164;2023-05-07T09:04:50;9.60;7.80;6.00
77413;PMS7003;66486;49.992;19.164;2023-05-07T09:07:16;9.20;9.00;7.00
77413;PMS7003;66486;49.992;19.164;2023-05-07T09:09:43;6.40;6.40;6.00
77413;PMS7003;66486;49.992;19.164;2023-05-07T09:12:10;10.00;8.20;6.00
77413;PMS7003;66486;49.992;19.164;2023-05-07T09:14:36;4.00;4.00;4.00
77413;PMS7003;66486;49.992;19.164;2023-05-07T09:17:01;11.50;11.00;9.00
77413;PMS7003;66486;49.992;19.164;2023-05-07T09:19:28;9.00;9.00;6.80
77413;PMS7003;66486;49.992;19.164;2023-05-07T09:22:00;8.00;8.00;5.50
77413;PMS7003;66486;49.992;19.164;2023-05-07T09:24:31;5.80;5.80;4.80
77413;PMS7003;66486;49.992;19.164;2023-05-07T09:27:00;9.40;9.40;9.00
77413;PMS7003;66486;49.992;19.164;2023-05-07T09:29:27;10.00;9.60;6.80
77413;PMS7003;66486;49.992;19.164;2023-05-07T09:31:55;7.40;7.40;4.00
77413;PMS7003;66486;49.992;19.164;2023-05-07T09:34:22;7.00;7.00;6.00
77413;PMS7003;66486;49.992;19.164;2023-05-07T09:36:47;8.50;7.00;6.00
77413;PMS7003;66486;49.992;19.164;2023-05-07T09:39:14;8.20;8.20;6.60
77413;PMS7003;66486;49.992;19.164;2023-05-07T09:41:43;7.00;7.00;6.00
77413;PMS7003;66486;49.992;19.164;2023-05-07T09:44:10;7.80;7.00;5.20
77413;PMS7003;66486;49.992;19.164;2023-05-07T09:46:36;6.25;6.25;5.00
77413;PMS7003;66486;49.992;19.164;2023-05-07T09:49:04;3.20;3.20;3.00
77413;PMS7003;66486;49.992;19.164;2023-05-07T09:51:39;8.60;7.60;4.00
77413;PMS7003;66486;49.992;19.164;2023-05-07T09:54:11;6.00;6.00;4.00
77413;PMS7003;66486;49.992;19.164;2023-05-07T09:56:37;4.00;4.00;3.00
77413;PMS7003;66486;49.992;19.164;2023-05-07T09:59:07;8.20;7.40;5.20
77413;PMS7003;66486;49.992;19.164;2023-05-07T10:01:36;69.00;52.60;33.00
77413;PMS7003;66486;49.992;19.164;2023-05-07T10:04:02;13.00;12.40;9.00
77413;PMS7003;66486;49.992;19.164;2023-05-07T10:06:34;20.20;19.00;11.20
77413;PMS7003;66486;49.992;19.164;2023-05-07T10:09:01;6.80;6.80;6.00
77413;PMS7003;66486;49.992;19.164;2023-05-07T10:11:28;9.00;9.00;6.00
77413;PMS7003;66486;49.992;19.164;2023-05-07T10:13:54;7.80;7.00;6.00
77413;PMS7003;66486;49.992;19.164;2023-05-07T10:16:20;14.20;13.80;10.60
77413;PMS7003;66486;49.992;19.164;2023-05-07T10:18:47;21.60;21.60;15.00
77413;PMS7003;66486;49.992;19.164;2023-05-07T10:21:16;7.00;7.00;2.60
77413;PMS7003;66486;49.992;19.164;2023-05-07T10:23:50;10.80;10.40;9.00
77413;PMS7003;66486;49.992;19.164;2023-05-07T10:26:19;12.60;12.60;10.00
77413;PMS7003;66486;49.992;19.164;2023-05-07T10:28:49;11.60;11.60;9.20
77413;PMS7003;66486;49.992;19.164;2023-05-07T10:34:26;12.80;12.80;9.60
77413;PMS7003;66486;49.992;19.164;2023-05-07T10:36:58;10.80;10.80;8.20
77413;PMS7003;66486;49.992;19.164;2023-05-07T10:39:25;13.40;13.40;10.00
77413;PMS7003;66486;49.992;19.164;2023-05-07T10:41:50;9.25;8.00;6.00
77413;PMS7003;66486;49.992;19.164;2023-05-07T10:44:26;11.40;11.20;8.60
77413;PMS7003;66486;49.992;19.164;2023-05-07T10:47:06;15.00;14.60;10.00
77413;PMS7003;66486;49.992;19.164;2023-05-07T10:49:35;11.20;11.20;7.60
77413;PMS7003;66486;49.992;19.164;2023-05-07T10:52:22;11.60;10.80;9.00
77413;PMS7003;66486;49.992;19.164;2023-05-07T10:55:34;12.00;12.00;9.00
77413;PMS7003;66486;49.992;19.164;2023-05-07T10:57:42;7.40;7.40;3.60
77413;PMS7003;66486;49.992;19.164;2023-05-07T11:05:27;13.00;13.00;9.00
77413;PMS7003;66486;49.992;19.164;2023-05-07T11:07:56;15.80;15.00;10.00
77413;PMS7003;66486;49.992;19.164;2023-05-07T11:11:09;17.20;14.80;11.60
77413;PMS7003;66486;49.992;19.164;2023-05-07T11:13:17;15.60;14.20;10.00
77413;PMS7003;66486;49.992;19.164;2023-05-07T11:15:45;18.40;15.80;10.00
77413;PMS7003;66486;49.992;19.164;2023-05-07T11:18:12;19.40;18.40;12.40
77413;PMS7003;66486;49.992;19.164;2023-05-07T11:20:50;10.20;10.20;8.60
77413;PMS7003;66486;49.992;19.164;2023-05-07T11:26:05;12.40;12.00;8.20
77413;PMS7003;66486;49.992;19.164;2023-05-07T11:28:39;12.40;12.40;10.60
77413;PMS7003;66486;49.992;19.164;2023-05-07T11:31:07;10.00;9.20;6.00
77413;PMS7003;66486;49.992;19.164;2023-05-07T11:33:33;16.00;16.00;10.40
77413;PMS7003;66486;49.992;19.164;2023-05-07T11:36:01;17.20;16.80;10.00
77413;PMS7003;66486;49.992;19.164;2023-05-07T11:38:29;30.60;29.40;19.00
77413;PMS7003;66486;49.992;19.164;2023-05-07T11:40:57;25.80;25.00;15.00
77413;PMS7003;66486;49.992;19.164;2023-05-07T11:43:26;16.40;15.40;9.00
77413;PMS7003;66486;49.992;19.164;2023-05-07T11:45:52;17.60;17.60;12.20
77413;PMS7003;66486;49.992;19.164;2023-05-07T11:48:19;17.80;16.60;11.60
77413;PMS7003;66486;49.992;19.164;2023-05-07T11:50:51;18.40;18.40;10.40
77413;PMS7003;66486;49.992;19.164;2023-05-07T11:53:20;21.00;18.40;12.40
77413;PMS7003;66486;49.992;19.164;2023-05-07T11:55:56;19.80;19.80;13.20
77413;PMS7003;66486;49.992;19.164;2023-05-07T11:58:23;16.00;16.00;9.40
77413;PMS7003;66486;49.992;19.164;2023-05-07T12:00:54;19.20;18.60;13.00
77413;PMS7003;66486;49.992;19.164;2023-05-07T12:03:20;16.00;16.00;10.80
77413;PMS7003;66486;49.992;19.164;2023-05-07T12:05:47;13.60;13.60;10.40
77413;PMS7003;66486;49.992;19.164;2023-05-07T12:08:14;16.40;15.60;9.00
77413;PMS7003;66486;49.992;19.164;2023-05-07T12:10:41;16.40;16.40;10.80
77413;PMS7003;66486;49.992;19.164;2023-05-07T12:13:24;19.20;16.80;11.20
77413;PMS7003;66486;49.992;19.164;2023-05-07T12:15:57;21.00;19.40;11.20
77413;PMS7003;66486;49.992;19.164;2023-05-07T12:18:23;26.20;24.00;15.00
77413;PMS7003;66486;49.992;19.164;2023-05-07T12:20:50;22.40;20.60;12.80
77413;PMS7003;66486;49.992;19.164;2023-05-07T12:23:17;20.60;20.60;12.00
77413;PMS7003;66486;49.992;19.164;2023-05-07T12:25:43;21.00;21.00;13.00
77413;PMS7003;66486;49.992;19.164;2023-05-07T12:28:13;23.00;21.20;12.00
77413;PMS7003;66486;49.992;19.164;2023-05-07T12:30:43;23.00;21.60;14.20
77413;PMS7003;66486;49.992;19.164;2023-05-07T12:33:10;15.40;15.40;10.80
77413;PMS7003;66486;49.992;19.164;2023-05-07T12:35:38;11.20;11.20;7.00
77413;PMS7003;66486;49.992;19.164;2023-05-07T12:38:09;16.40;16.40;12.20
77413;PMS7003;66486;49.992;19.164;2023-05-07T12:40:40;15.20;15.00;11.80
77413;PMS7003;66486;49.992;19.164;2023-05-07T12:43:07;22.40;22.00;14.20
77413;PMS7003;66486;49.992;19.164;2023-05-07T12:45:41;23.60;21.60;13.40
77413;PMS7003;66486;49.992;19.164;2023-05-07T12:48:07;29.20;29.20;15.40
77413;PMS7003;66486;49.992;19.164;2023-05-07T12:50:36;15.60;14.80;11.20
77413;PMS7003;66486;49.992;19.164;2023-05-07T12:53:05;18.20;18.00;10.00
77413;PMS7003;66486;49.992;19.164;2023-05-07T12:55:43;25.80;25.00;14.60
77413;PMS7003;66486;49.992;19.164;2023-05-07T12:58:20;20.60;17.60;10.00
77413;PMS7003;66486;49.992;19.164;2023-05-07T13:00:51;25.00;25.00;16.00
77413;PMS7003;66486;49.992;19.164;2023-05-07T13:03:21;24.00;21.40;15.20
77413;PMS7003;66486;49.992;19.164;2023-05-07T13:05:56;29.00;27.40;15.20
77413;PMS7003;66486;49.992;19.164;2023-05-07T13:08:28;24.80;22.40;13.00
77413;PMS7003;66486;49.992;19.164;2023-05-07T13:11:07;18.60;18.40;10.00
77413;PMS7003;66486;49.992;19.164;2023-05-07T13:13:34;22.80;22.80;15.00
77413;PMS7003;66486;49.992;19.164;2023-05-07T13:16:01;21.60;21.40;15.00
77413;PMS7003;66486;49.992;19.164;2023-05-07T13:18:29;18.60;18.00;11.60
77413;PMS7003;66486;49.992;19.164;2023-05-07T13:20:56;24.60;21.00;15.20
77413;PMS7003;66486;49.992;19.164;2023-05-07T13:23:22;19.50;19.50;14.00
77413;PMS7003;66486;49.992;19.164;2023-05-07T13:25:48;18.00;18.00;12.00
77413;PMS7003;66486;49.992;19.164;2023-05-07T13:28:15;15.60;14.80;9.00
77413;PMS7003;66486;49.992;19.164;2023-05-07T13:30:42;20.60;20.20;13.00
77413;PMS7003;66486;49.992;19.164;2023-05-07T13:33:08;17.20;16.00;10.00
77413;PMS7003;66486;49.992;19.164;2023-05-07T13:35:35;15.20;15.00;7.80
77413;PMS7003;66486;49.992;19.164;2023-05-07T13:38:01;19.40;19.20;12.80
77413;PMS7003;66486;49.992;19.164;2023-05-07T13:40:27;18.00;16.00;12.80
77413;PMS7003;66486;49.992;19.164;2023-05-07T13:42:53;18.50;18.50;9.25
77413;PMS7003;66486;49.992;19.164;2023-05-07T13:45:19;22.80;22.80;14.00
77413;PMS7003;66486;49.992;19.164;2023-05-07T13:47:46;20.20;19.40;13.00
77413;PMS7003;66486;49.992;19.164;2023-05-07T13:50:12;17.20;17.20;11.60
77413;PMS7003;66486;49.992;19.164;2023-05-07T13:52:41;16.00;16.00;10.00